Time;durP1;ratioP1;P1;durP2;ratioP2;P2;SDS_P1;SDS_P2;PMS_P1;PMS_P2;Temp;Humidity;BMP_temperature;BMP_pressure;BME280_temperature;BME280_humidity;BME280_pressure;Samples;Min_cycle;Max_cycle;Signal;HPM_P1;HPM_P2
2022/12/08 00:04:19;;;;;;;19.40;8.43;;;-0.10;99.90;;;-2.62;100.00;100037.66;10549084;28;20056;-78
2022/12/08 00:09:38;;;;;;;23.23;9.67;;;-0.20;99.90;;;-2.64;100.00;100030.84;10556973;27;20058;-78
2022/12/08 00:14:44;;;;;;;31.47;11.90;;;-0.20;99.90;;;-2.63;100.00;100036.00;10582924;27;20055;-78
2022/12/08 00:19:49;;;;;;;29.80;11.33;;;-0.20;99.90;;;-2.66;100.00;100030.09;10589446;27;20078;-79
2022/12/08 00:24:52;;;;;;;26.23;10.17;;;-0.20;99.90;;;-2.72;100.00;100036.50;10590479;27;20514;-77
2022/12/08 00:29:55;;;;;;;23.50;9.87;;;-0.20;99.90;;;-2.82;100.00;100036.22;10594201;27;20052;-78
2022/12/08 00:34:58;;;;;;;24.13;9.37;;;-0.30;99.90;;;-2.82;100.00;100040.53;10597769;27;20063;-78
2022/12/08 00:40:01;;;;;;;18.23;8.07;;;-0.30;99.90;;;-2.83;100.00;100031.91;10627942;27;20060;-78
2022/12/08 00:45:05;;;;;;;21.80;8.07;;;-0.30;99.90;;;-2.83;100.00;100029.31;10550414;27;20066;-78
2022/12/08 00:50:09;;;;;;;23.23;9.33;;;-0.30;99.90;;;-2.79;100.00;100041.22;10630889;27;20059;-78
2022/12/08 00:55:12;;;;;;;17.70;7.27;;;-0.20;99.90;;;-2.77;100.00;100046.31;10612805;27;20055;-78
2022/12/08 01:00:15;;;;;;;20.77;9.07;;;-0.20;99.90;;;-2.75;100.00;100047.09;10575761;27;20592;-78
2022/12/08 01:05:18;;;;;;;22.90;8.83;;;-0.20;99.90;;;-2.73;100.00;100042.63;10589365;27;20094;-78
2022/12/08 01:10:21;;;;;;;29.57;9.67;;;-0.20;99.90;;;-2.70;100.00;100032.03;10587456;27;20063;-79
2022/12/08 01:15:24;;;;;;;18.97;7.83;;;-0.10;99.90;;;-2.68;100.00;100038.00;10574861;27;20049;-79
2022/12/08 01:20:27;;;;;;;26.37;11.47;;;-0.10;99.90;;;-2.67;100.00;100029.28;10602576;27;20063;-78
2022/12/08 01:25:34;;;;;;;21.13;8.90;;;-0.10;99.90;;;-2.61;100.00;100035.88;10562540;27;20056;-78
2022/12/08 01:30:38;;;;;;;31.30;11.83;;;0.00;99.90;;;-2.57;100.00;100030.44;10567222;27;20052;-78
2022/12/08 01:35:41;;;;;;;28.40;10.90;;;0.00;99.90;;;-2.54;100.00;100040.66;10604518;27;20056;-78
2022/12/08 01:40:44;;;;;;;24.40;10.20;;;0.10;99.90;;;-2.56;100.00;100039.91;10553386;27;20060;-78
2022/12/08 01:45:47;;;;;;;22.93;9.63;;;0.10;99.90;;;-2.58;100.00;100038.31;10574235;27;20144;-78
2022/12/08 01:50:53;;;;;;;20.37;8.43;;;0.00;99.90;;;-2.63;100.00;100040.34;10593883;27;20056;-78
2022/12/08 01:56:00;;;;;;;24.47;9.67;;;0.00;99.90;;;-2.68;100.00;100026.78;10572761;27;20062;-78
2022/12/08 02:01:03;;;;;;;19.40;8.40;;;-0.10;99.90;;;-2.79;100.00;100019.56;10521065;28;20541;-79
2022/12/08 02:06:06;;;;;;;19.50;8.20;;;-0.20;99.90;;;-2.87;100.00;100027.81;10501963;28;20064;-79
2022/12/08 02:11:10;;;;;;;13.07;6.57;;;-0.30;99.90;;;-2.93;100.00;100024.72;10510167;28;20052;-79
2022/12/08 02:16:44;;;;;;;19.73;7.03;;;-0.40;99.90;;;-3.00;100.00;100022.47;10525854;28;20066;-78
2022/12/08 02:22:14;;;;;;;20.20;7.93;;;-0.40;99.90;;;-3.03;100.00;100017.44;10544516;28;20060;-79
2022/12/08 02:28:06;;;;;;;22.03;8.67;;;-0.50;99.90;;;-2.99;100.00;100013.75;10516306;28;20056;-79
2022/12/08 02:33:36;;;;;;;27.43;9.70;;;-0.50;99.90;;;-2.93;100.00;100030.78;10520521;28;20064;-79
2022/12/08 02:38:59;;;;;;;20.83;7.63;;;-0.40;99.90;;;-2.94;100.00;100026.47;10523344;28;20053;-79
2022/12/08 02:44:21;;;;;;;19.17;7.63;;;-0.40;99.90;;;-2.98;100.00;100015.41;10531231;28;20059;-79
2022/12/08 02:49:31;;;;;;;;;;;-0.40;99.90;;;-3.03;100.00;100007.03;10529689;28;20052;-79
2022/12/08 02:54:36;;;;;;;23.93;8.00;;;-0.40;99.90;;;-3.03;100.00;99995.81;10554502;27;19936;-79
2022/12/08 02:59:45;;;;;;;25.77;9.60;;;-0.40;99.90;;;-2.99;100.00;100005.94;10564574;27;20056;-79
2022/12/08 03:05:02;;;;;;;22.63;9.50;;;-0.40;99.90;;;-2.92;100.00;99990.00;10581956;27;20504;-79
2022/12/08 03:10:08;;;;;;;23.70;9.20;;;-0.30;99.90;;;-2.85;100.00;99989.56;10620398;27;20146;-79
2022/12/08 03:15:19;;;;;;;22.60;9.17;;;-0.30;99.90;;;-2.75;100.00;99979.47;10584832;28;20467;-79
2022/12/08 03:20:26;;;;;;;16.60;7.67;;;-0.20;99.90;;;-2.65;100.00;99978.00;10594363;27;20083;-79
2022/12/08 03:25:35;;;;;;;24.10;9.57;;;-0.10;99.90;;;-2.55;100.00;99984.34;10548742;27;20150;-79
2022/12/08 03:30:43;;;;;;;28.47;10.53;;;0.00;99.90;;;-2.46;100.00;99981.22;10563771;28;20060;-79
2022/12/08 03:35:46;;;;;;;38.80;15.13;;;0.10;99.90;;;-2.37;100.00;99978.97;10552962;28;20542;-80
2022/12/08 03:46:11;;;;;;;26.17;11.18;;;0.30;99.90;;;-2.14;100.00;99980.22;10563598;27;20060;-79
2022/12/08 03:51:15;;;;;;;28.00;10.87;;;0.40;99.90;;;-2.06;100.00;99977.97;10584304;28;20064;-79
2022/12/08 03:56:34;;;;;;;24.87;11.10;;;0.50;99.90;;;-2.00;100.00;99978.44;10601592;27;20063;-79
2022/12/08 04:01:37;;;;;;;30.83;10.33;;;0.60;99.90;;;-1.97;100.00;99980.03;10576831;27;20059;-79
2022/12/08 04:06:40;;;;;;;23.97;9.27;;;0.70;99.90;;;-1.92;100.00;99988.38;10568066;28;20529;-79
2022/12/08 04:11:43;;;;;;;28.63;11.03;;;0.70;99.90;;;-1.89;100.00;99983.81;10606731;27;20087;-79
2022/12/08 04:16:46;;;;;;;29.17;11.37;;;0.70;99.90;;;-1.86;100.00;99981.94;10595477;27;20139;-79
2022/12/08 04:21:49;;;;;;;22.40;9.20;;;0.70;99.90;;;-1.86;100.00;99977.56;10574205;27;20495;-79
2022/12/08 04:26:52;;;;;;;19.93;7.77;;;0.70;99.90;;;-1.84;100.00;99972.28;10597548;27;20056;-80
2022/12/08 04:31:55;;;;;;;21.87;9.13;;;0.70;99.90;;;-1.87;100.00;99970.69;10626067;27;20139;-80
2022/12/08 04:36:59;;;;;;;22.90;9.17;;;0.70;99.90;;;-1.91;100.00;99971.84;10594690;27;20087;-79
2022/12/08 04:42:02;;;;;;;24.70;10.67;;;0.60;99.90;;;-1.92;100.00;99977.94;10566209;27;20071;-79
2022/12/08 04:47:05;;;;;;;35.57;12.47;;;0.60;99.90;;;-1.91;100.00;99971.84;10633091;27;20070;-79
2022/12/08 04:52:08;;;;;;;29.30;10.40;;;0.60;99.90;;;-1.92;100.00;99964.94;10606040;27;20143;-79
2022/12/08 04:57:11;;;;;;;18.47;8.53;;;0.60;99.90;;;-1.90;100.00;99956.13;10579889;27;20052;-78
2022/12/08 05:02:14;;;;;;;23.10;10.30;;;0.60;99.90;;;-1.86;100.00;99963.72;10561281;27;20056;-80
2022/12/08 05:07:17;;;;;;;24.70;11.23;;;0.60;99.90;;;-1.83;100.00;99961.78;10586590;27;20060;-80
2022/12/08 05:12:20;;;;;;;25.33;11.70;;;0.70;99.90;;;-1.78;100.00;99961.50;10572677;27;20044;-81
2022/12/08 05:17:23;;;;;;;48.17;18.63;;;0.80;99.90;;;-1.72;100.00;99955.91;10597160;27;20066;-81
2022/12/08 05:22:26;;;;;;;46.13;16.13;;;0.90;99.90;;;-1.64;100.00;99953.66;10546617;27;20090;-81
2022/12/08 05:27:29;;;;;;;36.87;14.43;;;0.90;99.90;;;-1.60;100.00;99960.34;10572339;28;20060;-81
2022/12/08 05:32:32;;;;;;;34.70;14.13;;;1.00;99.90;;;-1.58;100.00;99957.63;10593597;27;20062;-81
2022/12/08 05:37:35;;;;;;;31.50;13.53;;;1.00;99.90;;;-1.55;100.00;99950.47;10583502;27;20065;-81
2022/12/08 05:42:39;;;;;;;38.93;14.53;;;1.10;99.90;;;-1.53;100.00;99943.38;10598103;27;20060;-81
2022/12/08 05:47:41;;;;;;;32.87;13.37;;;1.00;99.90;;;-1.53;100.00;99953.81;10581534;27;20500;-81
2022/12/08 05:52:44;;;;;;;28.10;12.43;;;1.00;99.90;;;-1.50;100.00;99947.56;10575113;27;20060;-81
2022/12/08 05:57:47;;;;;;;24.40;11.20;;;1.10;99.90;;;-1.50;100.00;99945.81;10577048;28;20056;-81
2022/12/08 06:02:50;;;;;;;30.53;13.47;;;1.10;99.90;;;-1.48;100.00;99949.16;10579465;27;20055;-80
2022/12/08 06:07:53;;;;;;;70.43;23.90;;;1.10;99.90;;;-1.47;100.00;99956.03;10595705;27;20067;-81
2022/12/08 06:12:58;;;;;;;43.73;17.73;;;1.10;99.90;;;-1.45;100.00;99954.16;10577915;27;20079;-80
2022/12/08 06:18:01;;;;;;;55.20;22.13;;;1.10;99.90;;;-1.42;100.00;99963.56;10579268;27;20063;-80
2022/12/08 06:23:04;;;;;;;50.00;22.10;;;1.10;99.90;;;-1.39;100.00;99964.19;10601303;27;20411;-80
2022/12/08 06:28:07;;;;;;;47.00;19.13;;;1.20;99.90;;;-1.36;100.00;99971.00;10603821;27;20258;-81
2022/12/08 06:33:10;;;;;;;50.47;18.90;;;1.20;99.90;;;-1.35;100.00;99975.25;10575430;27;20055;-81
2022/12/08 06:38:14;;;;;;;51.77;19.60;;;1.20;99.90;;;-1.30;100.00;99988.00;10607135;27;20414;-80
2022/12/08 06:43:18;;;;;;;28.27;11.87;;;1.30;99.90;;;-1.30;100.00;99973.22;10613031;27;20142;-81
2022/12/08 06:48:21;;;;;;;32.17;13.63;;;1.30;99.90;;;-1.31;100.00;99988.94;10587830;27;20059;-81
2022/12/08 06:53:24;;;;;;;42.87;16.73;;;1.20;99.90;;;-1.33;100.00;99975.16;10591171;27;20055;-80
2022/12/08 06:58:27;;;;;;;34.73;15.20;;;1.20;99.90;;;-1.33;100.00;99982.97;10632837;27;20083;-80
2022/12/08 07:03:30;;;;;;;39.70;16.67;;;1.20;99.90;;;-1.30;100.00;99980.19;10630472;27;20066;-81
2022/12/08 07:08:33;;;;;;;37.50;14.93;;;1.20;99.90;;;-1.28;100.00;99986.13;10589335;27;20056;-81
2022/12/08 07:13:37;;;;;;;38.70;15.10;;;1.20;99.90;;;-1.25;100.00;99986.78;10550869;27;20064;-81
2022/12/08 07:18:41;;;;;;;89.50;26.23;;;1.30;99.90;;;-1.20;100.00;99989.06;10574850;27;20526;-81
2022/12/08 07:23:46;;;;;;;45.73;18.83;;;1.30;99.90;;;-1.17;100.00;99978.47;10599749;27;20056;-81
2022/12/08 07:28:55;;;;;;;36.28;15.82;;;1.40;99.90;;;-1.15;100.00;99979.19;10553707;28;20071;-81
2022/12/08 07:33:58;;;;;;;38.33;18.10;;;1.40;99.90;;;-1.14;100.00;99979.13;10555188;27;20067;-81
2022/12/08 07:39:01;;;;;;;38.67;21.13;;;1.40;99.90;;;-1.10;100.00;99982.34;10583967;27;20141;-81
2022/12/08 07:44:04;;;;;;;36.67;17.60;;;1.40;99.90;;;-1.07;100.00;99974.34;10609890;27;20059;-81
2022/12/08 07:49:07;;;;;;;43.23;17.70;;;1.50;99.90;;;-1.00;100.00;99975.59;10607932;27;20068;-81
2022/12/08 07:54:13;;;;;;;38.17;16.23;;;1.50;99.90;;;-0.93;100.00;99974.25;10621374;27;20058;-81
2022/12/08 07:59:16;;;;;;;43.37;18.57;;;1.60;99.90;;;-0.83;100.00;99961.47;10610191;27;20094;-81
2022/12/08 08:04:19;;;;;;;45.33;20.00;;;1.80;99.90;;;-0.72;100.00;99966.81;10644939;27;20066;-80
2022/12/08 08:09:22;;;;;;;42.73;19.97;;;1.90;99.90;;;-0.57;100.00;99962.34;10626266;27;20125;-81
2022/12/08 08:14:25;;;;;;;47.30;20.30;;;2.10;99.90;;;-0.43;100.00;99970.06;10612526;27;20090;-80
2022/12/08 08:19:28;;;;;;;118.70;33.63;;;2.30;99.90;;;-0.28;100.00;99974.25;10633711;27;20052;-81
2022/12/08 08:24:31;;;;;;;54.90;23.07;;;2.40;99.90;;;-0.14;100.00;99969.88;10625556;27;20051;-81
2022/12/08 08:29:34;;;;;;;41.93;19.03;;;2.50;99.90;;;-0.02;100.00;99966.41;10625702;27;20138;-80
2022/12/08 08:34:37;;;;;;;39.23;18.30;;;2.70;99.90;;;0.14;100.00;99960.97;10617243;27;20066;-81
2022/12/08 08:39:41;;;;;;;33.03;15.80;;;2.90;99.90;;;0.29;100.00;99972.94;10613391;27;20546;-80
2022/12/08 08:44:44;;;;;;;42.03;19.33;;;3.00;99.90;;;0.43;100.00;99959.75;10596189;27;20060;-80
2022/12/08 08:49:47;;;;;;;47.73;21.33;;;3.20;99.90;;;0.58;100.00;99959.59;10596120;27;20055;-81
2022/12/08 08:54:50;;;;;;;37.43;18.87;;;3.30;99.90;;;0.72;100.00;99949.81;10640634;27;20063;-80
2022/12/08 08:59:53;;;;;;;56.80;22.43;;;3.50;99.90;;;0.86;100.00;99964.50;10579785;27;20151;-81
2022/12/08 09:04:56;;;;;;;43.07;23.13;;;3.70;99.90;;;0.98;100.00;99949.69;10591458;27;20222;-80
2022/12/08 09:09:59;;;;;;;56.40;27.40;;;3.80;99.90;;;1.09;100.00;99957.59;10623340;27;20508;-81
2022/12/08 09:15:04;;;;;;;47.23;22.90;;;3.90;99.90;;;1.18;100.00;99945.59;10597580;27;20055;-80
2022/12/08 09:20:08;;;;;;;43.53;21.80;;;4.00;99.90;;;1.27;100.00;99930.03;10595391;27;20056;-80
2022/12/08 09:25:12;;;;;;;45.87;22.67;;;4.10;99.90;;;1.36;100.00;99923.25;10628222;27;20055;-80
2022/12/08 09:30:18;;;;;;;39.57;20.90;;;4.20;99.90;;;1.47;100.00;99932.94;10597593;27;20064;-80
2022/12/08 09:35:21;;;;;;;48.47;24.27;;;4.30;99.90;;;1.52;100.00;99928.19;10631849;27;20059;-80
2022/12/08 09:40:25;;;;;;;47.97;25.67;;;4.30;99.90;;;1.58;100.00;99922.47;10613372;27;20120;-80
2022/12/08 09:45:34;;;;;;;55.30;28.60;;;4.40;99.90;;;1.64;100.00;99916.78;10579721;27;20141;-81
2022/12/08 09:50:52;;;;;;;52.10;24.93;;;4.40;99.90;;;1.72;100.00;99906.53;10618116;27;20055;-80
2022/12/08 09:56:00;;;;;;;32.17;17.40;;;4.50;99.90;;;1.80;100.00;99891.06;10614268;27;20576;-80
2022/12/08 10:01:03;;;;;;;31.33;16.27;;;4.60;99.90;;;1.84;100.00;99882.00;10614617;27;20064;-80
2022/12/08 10:06:40;;;;;;;23.93;12.87;;;4.60;99.90;;;1.95;100.00;99896.06;10604642;27;20150;-81
2022/12/08 10:12:15;;;;;;;29.10;15.27;;;4.60;99.90;;;2.08;100.00;99896.75;10582973;27;20063;-81
2022/12/08 10:17:39;;;;;;;108.57;38.27;;;4.70;99.90;;;2.10;100.00;99915.81;10601151;27;20547;-80
2022/12/08 10:22:44;;;;;;;49.37;21.30;;;4.70;99.90;;;2.15;100.00;99888.28;10573701;27;20081;-80
2022/12/08 10:27:53;;;;;;;39.97;19.17;;;4.70;99.90;;;2.29;100.00;99881.13;10600519;27;20055;-81
2022/12/08 10:32:56;;;;;;;24.23;12.77;;;4.80;99.90;;;2.47;100.00;99863.06;10611910;27;20090;-81
2022/12/08 10:38:02;;;;;;;28.97;16.30;;;5.00;99.90;;;2.68;100.00;99848.19;10612605;27;20059;-81
2022/12/08 10:43:23;;;;;;;31.03;15.10;;;5.10;99.90;;;2.86;100.00;99843.22;10610825;27;20056;-81
2022/12/08 10:48:30;;;;;;;25.57;13.53;;;5.30;99.90;;;3.01;100.00;99835.88;10594932;27;20059;-81
2022/12/08 10:53:43;;;;;;;26.23;15.07;;;5.50;99.90;;;3.16;100.00;99842.44;10595269;27;20146;-80
2022/12/08 10:58:47;;;;;;;28.73;14.00;;;5.60;99.90;;;3.32;100.00;99836.75;10586476;27;20059;-80
2022/12/08 11:03:58;;;;;;;26.80;13.93;;;5.70;99.90;;;3.40;100.00;99826.41;10552646;28;20064;-80
2022/12/08 11:09:06;;;;;;;25.73;13.43;;;5.90;99.90;;;3.47;100.00;99824.91;10553480;27;20101;-80
2022/12/08 11:14:22;;;;;;;26.17;14.37;;;5.90;99.90;;;3.54;100.00;99806.81;10589386;27;20056;-80
2022/12/08 11:19:26;;;;;;;31.57;18.37;;;6.00;99.90;;;3.53;100.00;99794.66;10553880;27;20067;-81
2022/12/08 11:24:33;;;;;;;57.80;29.70;;;5.90;99.90;;;3.50;100.00;99790.50;10574234;27;20420;-81
2022/12/08 11:29:40;;;;;;;30.10;16.70;;;5.90;99.90;;;3.56;100.00;99789.16;10595484;27;20143;-81
2022/12/08 11:35:02;;;;;;;26.07;12.87;;;5.90;99.90;;;3.70;100.00;99773.81;10607989;27;20055;-81
2022/12/08 11:40:22;;;;;;;26.13;14.73;;;6.10;99.90;;;3.72;100.00;99756.16;10556553;27;20568;-81
2022/12/08 11:45:31;;;;;;;25.30;14.93;;;6.10;99.90;;;3.70;100.00;99749.34;10553077;28;20066;-81
2022/12/08 11:50:46;;;;;;;34.50;18.13;;;6.20;99.90;;;3.62;100.00;99731.63;10569046;27;20591;-81
2022/12/08 11:55:58;;;;;;;25.90;14.43;;;6.10;99.90;;;3.53;100.00;99726.34;10572516;27;20064;-81
2022/12/08 12:01:02;;;;;;;26.27;13.23;;;6.00;99.90;;;3.44;98.81;99728.00;10532540;28;20185;-81
2022/12/08 12:06:41;;;;;;;28.13;13.77;;;5.90;99.90;;;3.37;98.67;99721.63;10601759;27;20291;-81
2022/12/08 12:12:24;;;;;;;24.83;12.10;;;5.80;99.90;;;3.30;98.04;99720.47;10592839;27;20107;-79
2022/12/08 12:18:02;;;;;;;23.20;12.63;;;5.70;99.90;;;3.26;97.69;99730.41;10553589;28;20059;-79
2022/12/08 12:23:42;;;;;;;21.90;11.27;;;5.70;99.90;;;3.27;97.74;99721.56;10564204;28;20091;-79
2022/12/08 12:29:01;;;;;;;18.93;10.57;;;5.70;99.90;;;3.21;97.42;99720.31;10534248;28;20064;-79
2022/12/08 12:34:31;;;;;;;21.73;11.63;;;5.60;99.90;;;3.14;97.10;99727.06;10543896;28;20060;-79
2022/12/08 12:39:47;;;;;;;19.50;10.47;;;5.50;99.90;;;3.06;96.87;99715.53;10565980;28;20056;-79
2022/12/08 12:45:16;;;;;;;18.67;10.00;;;5.50;99.90;;;2.99;96.90;99724.91;10550343;28;20052;-79
2022/12/08 12:50:45;;;;;;;23.63;11.17;;;5.40;99.90;;;2.89;96.91;99733.56;10515586;28;20114;-80
2022/12/08 12:55:56;;;;;;;21.77;11.27;;;5.30;99.90;;;2.75;96.80;99727.81;10568650;27;20593;-80
2022/12/08 13:01:11;;;;;;;28.15;13.80;;;5.20;99.90;;;2.67;96.67;99723.22;10546815;28;20061;-80
2022/12/08 13:06:31;;;;;;;37.13;15.27;;;5.10;99.90;;;2.61;96.83;99715.88;10548090;28;20481;-80
2022/12/08 13:11:55;;;;;;;27.87;13.07;;;5.00;99.90;;;2.53;96.22;99716.50;10582544;27;20719;-79
2022/12/08 13:17:00;;;;;;;23.97;13.00;;;5.00;99.90;;;2.45;96.28;99711.06;10608539;27;20206;-80
2022/12/08 13:22:23;;;;;;;30.23;15.13;;;4.90;99.90;;;2.43;96.63;99705.13;10599180;27;20459;-80
2022/12/08 13:27:32;;;;;;;25.27;13.00;;;4.80;99.90;;;2.34;96.29;99708.50;10571658;28;20060;-80
2022/12/08 13:32:57;;;;;;;33.37;16.43;;;4.80;99.90;;;2.27;95.81;99697.69;10572348;28;20055;-80
2022/12/08 13:38:25;;;;;;;32.97;15.37;;;4.70;99.90;;;2.19;94.88;99702.75;10589604;28;20063;-79
2022/12/08 13:43:44;;;;;;;28.73;14.73;;;4.60;99.90;;;2.14;94.87;99705.72;10574344;28;20067;-78
2022/12/08 13:49:11;;;;;;;25.97;11.83;;;4.60;99.90;;;2.12;95.16;99709.44;10619913;27;20064;-78
2022/12/08 13:54:39;;;;;;;28.63;14.03;;;4.50;99.90;;;2.08;95.18;99710.66;10588795;27;20063;-79
2022/12/08 14:00:19;;;;;;;29.33;14.50;;;4.50;99.90;;;2.04;95.55;99702.22;10614019;27;20091;-79
2022/12/08 14:05:24;;;;;;;39.67;16.63;;;4.50;99.90;;;2.04;95.65;99709.22;10591018;27;20462;-79
2022/12/08 14:10:57;;;;;;;24.20;11.30;;;4.40;99.90;;;1.99;95.54;99709.63;10621551;27;20052;-79
2022/12/08 14:16:01;;;;;;;26.07;13.83;;;4.40;99.90;;;1.95;95.65;99699.50;10571329;28;20087;-79
2022/12/08 14:21:11;;;;;;;29.00;13.50;;;4.40;99.90;;;1.90;95.25;99696.44;10623047;27;20137;-80
2022/12/08 14:26:23;;;;;;;32.30;15.57;;;4.30;99.90;;;1.84;95.33;99703.81;10532478;28;20151;-80
2022/12/08 14:31:28;;;;;;;42.17;20.10;;;4.30;99.90;;;1.83;95.34;99710.03;10545000;28;20424;-80
2022/12/08 14:36:32;;;;;;;29.73;14.70;;;4.30;99.90;;;1.81;95.39;99706.72;10556880;28;20074;-80
2022/12/08 14:41:36;;;;;;;26.00;12.23;;;4.20;99.90;;;1.82;95.61;99715.41;10544406;28;20056;-80
2022/12/08 14:47:09;;;;;;;24.27;11.43;;;4.30;99.90;;;1.80;95.93;99727.78;10573628;28;20114;-80
2022/12/08 14:52:13;;;;;;;24.27;12.43;;;4.20;99.90;;;1.81;96.08;99718.97;10562104;28;20147;-80
2022/12/08 14:57:16;;;;;;;28.57;13.33;;;4.20;99.90;;;1.76;96.31;99711.47;10547591;28;20088;-80
2022/12/08 15:02:22;;;;;;;39.23;16.27;;;4.20;99.90;;;1.74;96.21;99713.41;10595939;27;20062;-80
2022/12/08 15:07:29;;;;;;;27.33;12.83;;;4.20;99.90;;;1.70;96.66;99698.88;10602380;27;20058;-79
2022/12/08 15:12:33;;;;;;;26.93;13.37;;;4.20;99.90;;;1.67;96.41;99686.03;10610084;27;20504;-80
2022/12/08 15:17:47;;;;;;;42.23;18.87;;;4.10;99.90;;;1.62;96.49;99685.59;10606243;27;20055;-79
2022/12/08 15:22:52;;;;;;;36.30;17.47;;;4.00;99.90;;;1.60;96.27;99682.22;10585840;27;20083;-79
2022/12/08 15:27:56;;;;;;;32.33;13.60;;;4.00;99.90;;;1.56;96.77;99680.81;10621410;27;20048;-80
2022/12/08 15:32:59;;;;;;;33.80;15.03;;;4.00;99.90;;;1.56;96.89;99683.44;10604817;27;20517;-79
2022/12/08 15:38:02;;;;;;;32.17;13.90;;;4.00;99.90;;;1.56;96.99;99672.94;10574988;27;20087;-80
2022/12/08 15:43:10;;;;;;;27.23;12.70;;;4.00;99.90;;;1.56;97.02;99663.34;10558531;28;20063;-80
2022/12/08 15:48:19;;;;;;;40.37;18.33;;;4.00;99.90;;;1.59;97.12;99657.00;10589594;27;20063;-80
2022/12/08 15:53:21;;;;;;;34.40;15.00;;;4.00;99.90;;;1.59;97.36;99657.84;10594757;27;20055;-80
2022/12/08 15:58:24;;;;;;;23.87;12.13;;;4.10;99.90;;;1.63;97.16;99662.84;10611911;27;20087;-79
2022/12/08 16:03:47;;;;;;;27.57;11.30;;;4.10;99.90;;;1.65;97.17;99680.09;10611454;27;20059;-79
2022/12/08 16:09:32;;;;;;;27.67;13.47;;;4.10;99.90;;;1.68;97.59;99676.38;10590644;27;20056;-79
2022/12/08 16:14:38;;;;;;;28.47;13.40;;;4.10;99.90;;;1.69;97.34;99655.31;10589153;27;20116;-78
2022/12/08 16:20:03;;;;;;;32.80;15.27;;;4.20;99.90;;;1.71;97.39;99652.56;10571278;27;20384;-78
2022/12/08 16:25:08;;;;;;;26.63;13.20;;;4.20;99.90;;;1.72;97.32;99654.22;10638452;27;20170;-78
2022/12/08 16:30:32;;;;;;;30.03;14.60;;;4.20;99.90;;;1.74;97.64;99654.91;10583258;27;20114;-78
2022/12/08 16:35:35;;;;;;;34.07;17.10;;;4.20;99.90;;;1.75;97.60;99662.69;10594653;27;20055;-78
2022/12/08 16:42:38;;;;;;;39.23;19.00;;;4.20;99.90;;;1.72;97.67;99660.28;10613568;27;20055;-78
2022/12/08 16:46:01;;;;;;;30.13;14.90;;;4.20;99.90;;;1.76;98.04;99666.13;10594278;27;20055;-78
2022/12/08 16:51:09;;;;;;;33.63;15.13;;;4.20;99.90;;;1.79;98.05;99669.31;10599242;27;20105;-78
2022/12/08 16:56:16;;;;;;;33.50;15.40;;;4.20;99.90;;;1.81;98.23;99682.31;10612926;27;20488;-78
2022/12/08 17:01:19;;;;;;;33.03;15.03;;;4.30;99.90;;;1.81;98.28;99677.91;10602502;27;20116;-78
2022/12/08 17:06:22;;;;;;;32.60;15.30;;;4.30;99.90;;;1.82;98.66;99676.94;10591638;27;20071;-78
2022/12/08 17:11:27;;;;;;;79.20;28.00;;;4.30;99.90;;;1.82;98.72;99663.84;10589675;27;20077;-78
2022/12/08 17:16:30;;;;;;;45.03;21.37;;;4.30;99.90;;;1.81;98.72;99645.63;10642409;27;20540;-80
2022/12/08 17:21:33;;;;;;;42.33;19.67;;;4.20;99.90;;;1.75;98.76;99654.00;10553414;28;20060;-79
2022/12/08 17:26:36;;;;;;;34.60;16.77;;;4.10;99.90;;;1.73;99.04;99653.25;10571555;27;20105;-80
2022/12/08 17:31:39;;;;;;;27.07;14.97;;;4.10;99.90;;;1.70;99.25;99649.13;10620576;27;20059;-79
2022/12/08 17:36:42;;;;;;;25.60;12.77;;;4.10;99.90;;;1.67;99.53;99649.34;10597923;27;20079;-79
2022/12/08 17:41:46;;;;;;;39.23;16.63;;;4.10;99.90;;;1.66;99.82;99642.44;10642063;27;20052;-79
2022/12/08 17:46:49;;;;;;;23.90;11.87;;;4.10;99.90;;;1.64;99.77;99639.13;10601798;27;20089;-79
2022/12/08 17:52:05;;;;;;;36.43;15.50;;;4.00;99.90;;;1.64;99.88;99644.38;10599975;27;20063;-78
2022/12/08 17:57:09;;;;;;;38.93;17.47;;;4.10;99.90;;;1.64;100.00;99649.63;10611736;27;20079;-80
2022/12/08 18:02:12;;;;;;;38.93;17.77;;;4.10;99.90;;;1.66;100.00;99658.16;10596365;27;20064;-80
2022/12/08 18:07:15;;;;;;;37.90;17.70;;;4.10;99.90;;;1.69;100.00;99662.34;10613637;27;20534;-79
2022/12/08 18:12:18;;;;;;;38.07;16.53;;;4.10;99.90;;;1.69;100.00;99650.06;10595815;27;20063;-79
2022/12/08 18:17:25;;;;;;;34.17;15.73;;;4.10;99.90;;;1.71;100.00;99640.28;10618603;27;20063;-79
2022/12/08 18:22:28;;;;;;;29.97;15.57;;;4.10;99.90;;;1.71;100.00;99639.47;10595834;27;20070;-79
2022/12/08 18:27:32;;;;;;;37.73;18.27;;;4.20;99.90;;;1.72;100.00;99631.47;10582701;27;20052;-79
2022/12/08 18:32:40;;;;;;;36.07;15.57;;;4.20;99.90;;;1.76;100.00;99632.06;10614048;27;20456;-79
2022/12/08 18:37:44;;;;;;;36.73;15.50;;;4.20;99.90;;;1.76;100.00;99630.28;10612544;27;20059;-79
2022/12/08 18:42:47;;;;;;;43.57;17.43;;;4.20;99.90;;;1.79;100.00;99630.00;10625772;27;20062;-79
2022/12/08 18:47:50;;;;;;;44.87;18.23;;;4.20;99.90;;;1.79;100.00;99648.34;10610635;27;20063;-79
2022/12/08 18:52:54;;;;;;;39.83;18.23;;;4.30;99.90;;;1.79;100.00;99632.63;10601819;27;20060;-79
2022/12/08 18:57:57;;;;;;;27.10;14.13;;;4.20;99.90;;;1.80;100.00;99633.47;10585284;27;20059;-79
2022/12/08 19:03:00;;;;;;;31.87;14.47;;;4.20;99.90;;;1.82;100.00;99632.41;10583005;27;20052;-79
2022/12/08 19:08:04;;;;;;;31.10;14.80;;;4.30;99.90;;;1.82;100.00;99627.16;10587856;27;20063;-79
2022/12/08 19:13:09;;;;;;;28.03;13.53;;;4.30;99.90;;;1.82;100.00;99634.19;10610482;27;20094;-79
2022/12/08 19:18:11;;;;;;;32.50;14.73;;;4.30;99.90;;;1.79;100.00;99616.91;10616249;27;20058;-79
2022/12/08 19:23:15;;;;;;;33.57;15.77;;;4.30;99.90;;;1.84;100.00;99617.38;10621189;27;20059;-79
2022/12/08 19:28:17;;;;;;;28.33;13.43;;;4.30;99.90;;;1.85;100.00;99626.88;10621251;27;20066;-79
2022/12/08 19:33:24;;;;;;;29.40;13.60;;;4.30;99.90;;;1.88;100.00;99621.41;10579950;27;20058;-79
2022/12/08 19:38:27;;;;;;;41.53;16.97;;;4.30;99.90;;;1.89;100.00;99630.09;10600793;27;20151;-79
2022/12/08 19:48:54;;;;;;;66.27;23.40;;;4.40;99.90;;;1.92;100.00;99626.38;10578862;27;20056;-79
2022/12/08 19:53:57;;;;;;;45.80;20.30;;;4.30;99.90;;;1.92;100.00;99627.25;10622672;27;20056;-79
2022/12/08 19:59:00;;;;;;;59.33;22.73;;;4.40;99.90;;;1.94;100.00;99624.47;10566636;27;20060;-79
2022/12/08 20:04:03;;;;;;;70.27;25.23;;;4.40;99.90;;;1.94;100.00;99622.69;10610285;27;20090;-79
2022/12/08 20:09:07;;;;;;;58.03;24.30;;;4.40;99.90;;;1.94;100.00;99619.25;10589898;27;20142;-79
2022/12/08 20:14:10;;;;;;;57.77;23.27;;;4.40;99.90;;;1.95;100.00;99618.28;10596399;27;20424;-79
2022/12/08 20:19:13;;;;;;;62.10;25.20;;;4.40;99.90;;;1.95;100.00;99611.25;10593062;27;20937;-80
2022/12/08 20:24:16;;;;;;;38.90;17.83;;;4.40;99.90;;;1.96;100.00;99596.34;10568432;27;20060;-79
2022/12/08 20:29:19;;;;;;;57.53;23.43;;;4.40;99.90;;;1.97;100.00;99611.13;10609500;27;20110;-80
2022/12/08 20:34:24;;;;;;;50.43;21.63;;;4.40;99.90;;;1.94;100.00;99603.53;10603871;27;20531;-80
2022/12/08 20:39:27;;;;;;;48.43;21.10;;;4.40;99.90;;;1.95;100.00;99594.69;10590571;27;20063;-80
2022/12/08 20:44:30;;;;;;;43.40;21.13;;;4.40;99.90;;;1.95;100.00;99602.56;10598925;27;20056;-80
2022/12/08 20:49:33;;;;;;;36.70;17.47;;;4.40;99.90;;;1.94;100.00;99619.25;10591005;27;20412;-80
2022/12/08 20:54:37;;;;;;;43.70;18.87;;;4.40;99.90;;;1.93;100.00;99625.44;10600647;27;20067;-80
2022/12/08 20:59:40;;;;;;;44.57;20.27;;;4.30;99.90;;;1.88;100.00;99624.03;10568850;27;20060;-80
2022/12/08 21:04:43;;;;;;;47.47;23.37;;;4.40;99.90;;;1.91;100.00;99616.88;10610462;27;20465;-80
2022/12/08 21:09:46;;;;;;;42.37;20.00;;;4.40;99.90;;;1.92;100.00;99629.00;10595854;27;20089;-80
2022/12/08 21:14:50;;;;;;;38.77;18.13;;;4.30;99.90;;;1.93;100.00;99621.03;10599523;27;20067;-79
2022/12/08 21:19:53;;;;;;;39.90;18.77;;;4.40;99.90;;;1.94;100.00;99617.44;10634289;27;20056;-80